sensor_id;sensor_type;location;lat;lon;timestamp;P1;durP1;ratioP1;P2;durP2;ratioP2
12658;SDS011;6394;52.488;13.386;2022-09-21T00:02:02;4.63;;;3.30;;
12658;SDS011;6394;52.488;13.386;2022-09-21T00:04:29;5.07;;;3.50;;
12658;SDS011;6394;52.488;13.386;2022-09-21T00:06:56;4.27;;;3.23;;
12658;SDS011;6394;52.488;13.386;2022-09-21T00:09:24;4.97;;;3.50;;
12658;SDS011;6394;52.488;13.386;2022-09-21T00:11:51;4.40;;;3.30;;
12658;SDS011;6394;52.488;13.386;2022-09-21T00:14:19;6.03;;;3.30;;
12658;SDS011;6394;52.488;13.386;2022-09-21T00:16:47;4.00;;;3.60;;
12658;SDS011;6394;52.488;13.386;2022-09-21T00:19:16;6.03;;;4.00;;
12658;SDS011;6394;52.488;13.386;2022-09-21T00:21:44;4.37;;;3.40;;
12658;SDS011;6394;52.488;13.386;2022-09-21T00:24:11;5.33;;;3.63;;
12658;SDS011;6394;52.488;13.386;2022-09-21T00:26:38;5.27;;;3.33;;
12658;SDS011;6394;52.488;13.386;2022-09-21T00:29:06;4.33;;;3.40;;
12658;SDS011;6394;52.488;13.386;2022-09-21T00:31:34;5.27;;;3.37;;
12658;SDS011;6394;52.488;13.386;2022-09-21T00:34:02;4.97;;;3.67;;
12658;SDS011;6394;52.488;13.386;2022-09-21T00:36:31;3.30;;;2.80;;
12658;SDS011;6394;52.488;13.386;2022-09-21T00:38:59;5.23;;;3.20;;
12658;SDS011;6394;52.488;13.386;2022-09-21T00:41:29;4.23;;;3.10;;
12658;SDS011;6394;52.488;13.386;2022-09-21T00:46:44;5.00;;;3.50;;
12658;SDS011;6394;52.488;13.386;2022-09-21T00:49:11;4.20;;;2.87;;
12658;SDS011;6394;52.488;13.386;2022-09-21T00:51:39;4.20;;;2.93;;
12658;SDS011;6394;52.488;13.386;2022-09-21T00:54:07;3.30;;;3.00;;
12658;SDS011;6394;52.488;13.386;2022-09-21T00:56:39;5.97;;;3.03;;
12658;SDS011;6394;52.488;13.386;2022-09-21T00:59:06;4.40;;;2.90;;
12658;SDS011;6394;52.488;13.386;2022-09-21T01:01:34;5.53;;;2.87;;
12658;SDS011;6394;52.488;13.386;2022-09-21T01:04:03;5.73;;;3.13;;
12658;SDS011;6394;52.488;13.386;2022-09-21T01:06:32;5.60;;;2.80;;
12658;SDS011;6394;52.488;13.386;2022-09-21T01:09:01;3.57;;;2.90;;
12658;SDS011;6394;52.488;13.386;2022-09-21T01:11:30;4.27;;;2.93;;
12658;SDS011;6394;52.488;13.386;2022-09-21T01:16:44;4.33;;;2.60;;
12658;SDS011;6394;52.488;13.386;2022-09-21T01:19:21;2.70;;;2.50;;
12658;SDS011;6394;52.488;13.386;2022-09-21T01:21:54;3.57;;;2.73;;
12658;SDS011;6394;52.488;13.386;2022-09-21T01:24:39;3.80;;;2.70;;
12658;SDS011;6394;52.488;13.386;2022-09-21T01:29:59;2.67;;;2.47;;
12658;SDS011;6394;52.488;13.386;2022-09-21T01:32:27;2.70;;;2.50;;
12658;SDS011;6394;52.488;13.386;2022-09-21T01:34:57;4.40;;;2.63;;
12658;SDS011;6394;52.488;13.386;2022-09-21T01:37:28;3.63;;;2.80;;
12658;SDS011;6394;52.488;13.386;2022-09-21T01:39:58;2.87;;;2.23;;
12658;SDS011;6394;52.488;13.386;2022-09-21T01:42:26;3.23;;;2.67;;
12658;SDS011;6394;52.488;13.386;2022-09-21T01:44:54;5.83;;;2.67;;
12658;SDS011;6394;52.488;13.386;2022-09-21T01:47:25;2.70;;;2.47;;
12658;SDS011;6394;52.488;13.386;2022-09-21T01:49:55;5.47;;;3.27;;
12658;SDS011;6394;52.488;13.386;2022-09-21T01:52:26;2.37;;;2.17;;
12658;SDS011;6394;52.488;13.386;2022-09-21T01:54:57;5.00;;;3.10;;
12658;SDS011;6394;52.488;13.386;2022-09-21T01:57:29;3.33;;;2.70;;
12658;SDS011;6394;52.488;13.386;2022-09-21T01:59:58;4.70;;;2.90;;
12658;SDS011;6394;52.488;13.386;2022-09-21T02:02:29;2.90;;;2.67;;
12658;SDS011;6394;52.488;13.386;2022-09-21T02:04:58;3.17;;;2.87;;
12658;SDS011;6394;52.488;13.386;2022-09-21T02:07:26;4.60;;;3.07;;
12658;SDS011;6394;52.488;13.386;2022-09-21T02:09:53;3.93;;;2.80;;
12658;SDS011;6394;52.488;13.386;2022-09-21T02:12:21;2.90;;;2.63;;
12658;SDS011;6394;52.488;13.386;2022-09-21T02:14:48;4.77;;;2.93;;
12658;SDS011;6394;52.488;13.386;2022-09-21T02:17:22;7.03;;;2.97;;
12658;SDS011;6394;52.488;13.386;2022-09-21T02:19:56;3.23;;;2.93;;
12658;SDS011;6394;52.488;13.386;2022-09-21T02:22:28;5.10;;;3.30;;
12658;SDS011;6394;52.488;13.386;2022-09-21T02:25:01;4.13;;;3.00;;
12658;SDS011;6394;52.488;13.386;2022-09-21T02:27:31;5.83;;;3.60;;
12658;SDS011;6394;52.488;13.386;2022-09-21T02:30:02;4.60;;;3.07;;
12658;SDS011;6394;52.488;13.386;2022-09-21T02:32:33;4.73;;;3.10;;
12658;SDS011;6394;52.488;13.386;2022-09-21T02:35:04;3.93;;;3.53;;
12658;SDS011;6394;52.488;13.386;2022-09-21T02:37:34;3.30;;;3.00;;
12658;SDS011;6394;52.488;13.386;2022-09-21T02:40:05;3.77;;;3.00;;
12658;SDS011;6394;52.488;13.386;2022-09-21T02:42:36;5.17;;;3.50;;
12658;SDS011;6394;52.488;13.386;2022-09-21T02:45:06;3.70;;;3.40;;
12658;SDS011;6394;52.488;13.386;2022-09-21T02:47:35;4.17;;;3.20;;
12658;SDS011;6394;52.488;13.386;2022-09-21T02:50:06;3.53;;;2.87;;
12658;SDS011;6394;52.488;13.386;2022-09-21T02:52:35;4.40;;;3.07;;
12658;SDS011;6394;52.488;13.386;2022-09-21T02:55:04;3.73;;;3.17;;
12658;SDS011;6394;52.488;13.386;2022-09-21T02:57:32;3.97;;;3.20;;
12658;SDS011;6394;52.488;13.386;2022-09-21T03:00:01;5.30;;;3.30;;
12658;SDS011;6394;52.488;13.386;2022-09-21T03:02:34;4.47;;;3.00;;
12658;SDS011;6394;52.488;13.386;2022-09-21T03:05:02;4.43;;;3.23;;
12658;SDS011;6394;52.488;13.386;2022-09-21T03:07:30;5.73;;;3.20;;
12658;SDS011;6394;52.488;13.386;2022-09-21T03:09:58;3.47;;;3.13;;
12658;SDS011;6394;52.488;13.386;2022-09-21T03:12:25;5.10;;;3.03;;
12658;SDS011;6394;52.488;13.386;2022-09-21T03:14:52;3.80;;;2.93;;
12658;SDS011;6394;52.488;13.386;2022-09-21T03:17:20;4.43;;;3.10;;
12658;SDS011;6394;52.488;13.386;2022-09-21T03:19:47;5.17;;;3.60;;
12658;SDS011;6394;52.488;13.386;2022-09-21T03:22:14;3.87;;;3.43;;
12658;SDS011;6394;52.488;13.386;2022-09-21T03:24:43;4.83;;;3.80;;
12658;SDS011;6394;52.488;13.386;2022-09-21T03:27:11;5.40;;;3.43;;
12658;SDS011;6394;52.488;13.386;2022-09-21T03:29:38;6.40;;;3.70;;
12658;SDS011;6394;52.488;13.386;2022-09-21T03:32:05;7.33;;;3.70;;
12658;SDS011;6394;52.488;13.386;2022-09-21T03:34:32;4.27;;;3.70;;
12658;SDS011;6394;52.488;13.386;2022-09-21T03:37:00;5.17;;;3.60;;
12658;SDS011;6394;52.488;13.386;2022-09-21T03:39:27;3.90;;;3.13;;
12658;SDS011;6394;52.488;13.386;2022-09-21T03:41:56;4.87;;;3.60;;
12658;SDS011;6394;52.488;13.386;2022-09-21T03:44:23;6.10;;;3.73;;
12658;SDS011;6394;52.488;13.386;2022-09-21T03:46:51;5.43;;;3.93;;
12658;SDS011;6394;52.488;13.386;2022-09-21T03:49:18;4.27;;;3.50;;
12658;SDS011;6394;52.488;13.386;2022-09-21T03:51:46;5.37;;;3.90;;
12658;SDS011;6394;52.488;13.386;2022-09-21T03:54:13;5.70;;;3.63;;
12658;SDS011;6394;52.488;13.386;2022-09-21T03:56:40;7.77;;;4.37;;
12658;SDS011;6394;52.488;13.386;2022-09-21T03:59:09;5.93;;;3.93;;
12658;SDS011;6394;52.488;13.386;2022-09-21T04:01:36;6.60;;;4.03;;
12658;SDS011;6394;52.488;13.386;2022-09-21T04:04:03;5.60;;;3.57;;
12658;SDS011;6394;52.488;13.386;2022-09-21T04:06:31;6.27;;;4.10;;
12658;SDS011;6394;52.488;13.386;2022-09-21T04:08:58;4.77;;;3.90;;
12658;SDS011;6394;52.488;13.386;2022-09-21T04:11:26;5.17;;;4.10;;
12658;SDS011;6394;52.488;13.386;2022-09-21T04:13:57;5.20;;;4.70;;
12658;SDS011;6394;52.488;13.386;2022-09-21T04:16:27;4.80;;;3.90;;
12658;SDS011;6394;52.488;13.386;2022-09-21T04:18:54;7.87;;;4.20;;
12658;SDS011;6394;52.488;13.386;2022-09-21T04:21:21;6.10;;;3.40;;
12658;SDS011;6394;52.488;13.386;2022-09-21T04:23:48;4.43;;;3.80;;
12658;SDS011;6394;52.488;13.386;2022-09-21T04:26:19;4.90;;;3.50;;
12658;SDS011;6394;52.488;13.386;2022-09-21T04:28:47;7.87;;;3.77;;
12658;SDS011;6394;52.488;13.386;2022-09-21T04:31:14;5.73;;;3.80;;
12658;SDS011;6394;52.488;13.386;2022-09-21T04:33:43;7.90;;;4.37;;
12658;SDS011;6394;52.488;13.386;2022-09-21T04:36:13;6.03;;;3.97;;
12658;SDS011;6394;52.488;13.386;2022-09-21T04:38:40;7.37;;;3.53;;
12658;SDS011;6394;52.488;13.386;2022-09-21T04:41:08;5.77;;;3.63;;
12658;SDS011;6394;52.488;13.386;2022-09-21T04:43:35;8.13;;;3.77;;
12658;SDS011;6394;52.488;13.386;2022-09-21T04:46:05;4.63;;;4.13;;
12658;SDS011;6394;52.488;13.386;2022-09-21T04:48:33;5.37;;;4.13;;
12658;SDS011;6394;52.488;13.386;2022-09-21T04:51:02;5.53;;;3.50;;
12658;SDS011;6394;52.488;13.386;2022-09-21T04:53:30;5.27;;;3.63;;
12658;SDS011;6394;52.488;13.386;2022-09-21T04:55:57;7.23;;;3.87;;
12658;SDS011;6394;52.488;13.386;2022-09-21T04:58:24;5.23;;;3.40;;
12658;SDS011;6394;52.488;13.386;2022-09-21T05:00:52;8.20;;;4.63;;
12658;SDS011;6394;52.488;13.386;2022-09-21T05:03:20;7.33;;;4.30;;
12658;SDS011;6394;52.488;13.386;2022-09-21T05:05:49;6.30;;;4.27;;
12658;SDS011;6394;52.488;13.386;2022-09-21T05:08:18;6.37;;;4.07;;
12658;SDS011;6394;52.488;13.386;2022-09-21T05:11:07;5.00;;;4.13;;
12658;SDS011;6394;52.488;13.386;2022-09-21T05:13:33;5.00;;;4.50;;
12658;SDS011;6394;52.488;13.386;2022-09-21T05:16:01;8.43;;;4.63;;
12658;SDS011;6394;52.488;13.386;2022-09-21T05:18:28;7.67;;;4.80;;
12658;SDS011;6394;52.488;13.386;2022-09-21T05:20:56;6.03;;;4.47;;
12658;SDS011;6394;52.488;13.386;2022-09-21T05:23:26;8.03;;;5.10;;
12658;SDS011;6394;52.488;13.386;2022-09-21T05:25:53;5.00;;;4.50;;
12658;SDS011;6394;52.488;13.386;2022-09-21T05:28:21;7.47;;;4.90;;
12658;SDS011;6394;52.488;13.386;2022-09-21T05:30:50;7.27;;;4.13;;
12658;SDS011;6394;52.488;13.386;2022-09-21T05:33:20;5.60;;;4.83;;
12658;SDS011;6394;52.488;13.386;2022-09-21T05:35:52;7.43;;;5.30;;
12658;SDS011;6394;52.488;13.386;2022-09-21T05:38:26;7.77;;;4.80;;
12658;SDS011;6394;52.488;13.386;2022-09-21T05:40:54;8.13;;;4.97;;
12658;SDS011;6394;52.488;13.386;2022-09-21T05:43:21;7.00;;;5.10;;
12658;SDS011;6394;52.488;13.386;2022-09-21T05:45:49;9.07;;;5.30;;
12658;SDS011;6394;52.488;13.386;2022-09-21T05:48:19;7.63;;;5.37;;
12658;SDS011;6394;52.488;13.386;2022-09-21T05:50:50;11.80;;;6.73;;
12658;SDS011;6394;52.488;13.386;2022-09-21T05:53:30;9.20;;;5.73;;
12658;SDS011;6394;52.488;13.386;2022-09-21T05:56:02;8.40;;;5.90;;
12658;SDS011;6394;52.488;13.386;2022-09-21T05:58:31;8.53;;;5.90;;
12658;SDS011;6394;52.488;13.386;2022-09-21T06:01:08;7.33;;;6.30;;
12658;SDS011;6394;52.488;13.386;2022-09-21T06:03:39;7.00;;;6.30;;
12658;SDS011;6394;52.488;13.386;2022-09-21T06:06:07;7.17;;;6.47;;
12658;SDS011;6394;52.488;13.386;2022-09-21T06:08:35;9.70;;;6.53;;
12658;SDS011;6394;52.488;13.386;2022-09-21T06:11:03;7.73;;;6.40;;
12658;SDS011;6394;52.488;13.386;2022-09-21T06:13:30;7.70;;;6.30;;
12658;SDS011;6394;52.488;13.386;2022-09-21T06:16:00;11.33;;;6.50;;
12658;SDS011;6394;52.488;13.386;2022-09-21T06:18:27;11.13;;;6.07;;
12658;SDS011;6394;52.488;13.386;2022-09-21T06:20:55;8.17;;;6.03;;
12658;SDS011;6394;52.488;13.386;2022-09-21T06:23:22;7.77;;;6.23;;
12658;SDS011;6394;52.488;13.386;2022-09-21T06:25:51;8.37;;;6.20;;
12658;SDS011;6394;52.488;13.386;2022-09-21T06:28:18;7.87;;;6.30;;
12658;SDS011;6394;52.488;13.386;2022-09-21T06:30:49;10.93;;;5.70;;
12658;SDS011;6394;52.488;13.386;2022-09-21T06:33:16;7.43;;;4.63;;
12658;SDS011;6394;52.488;13.386;2022-09-21T06:35:51;11.83;;;5.10;;
12658;SDS011;6394;52.488;13.386;2022-09-21T06:38:19;8.50;;;4.60;;
12658;SDS011;6394;52.488;13.386;2022-09-21T06:40:46;8.43;;;4.20;;
12658;SDS011;6394;52.488;13.386;2022-09-21T06:43:15;7.63;;;3.93;;
12658;SDS011;6394;52.488;13.386;2022-09-21T06:45:44;4.47;;;3.60;;
12658;SDS011;6394;52.488;13.386;2022-09-21T06:48:18;6.37;;;3.57;;
12658;SDS011;6394;52.488;13.386;2022-09-21T06:50:45;5.60;;;3.90;;
12658;SDS011;6394;52.488;13.386;2022-09-21T06:53:13;7.37;;;3.83;;
12658;SDS011;6394;52.488;13.386;2022-09-21T06:55:41;5.03;;;4.00;;
12658;SDS011;6394;52.488;13.386;2022-09-21T06:58:16;4.70;;;3.13;;
12658;SDS011;6394;52.488;13.386;2022-09-21T07:00:43;5.63;;;3.60;;
12658;SDS011;6394;52.488;13.386;2022-09-21T07:03:11;7.93;;;4.10;;
12658;SDS011;6394;52.488;13.386;2022-09-21T07:05:38;7.70;;;4.00;;
12658;SDS011;6394;52.488;13.386;2022-09-21T07:08:06;6.63;;;4.00;;
12658;SDS011;6394;52.488;13.386;2022-09-21T07:10:33;4.23;;;3.83;;
12658;SDS011;6394;52.488;13.386;2022-09-21T07:13:01;7.27;;;3.80;;
12658;SDS011;6394;52.488;13.386;2022-09-21T07:15:30;6.63;;;3.80;;
12658;SDS011;6394;52.488;13.386;2022-09-21T07:17:57;5.30;;;3.90;;
12658;SDS011;6394;52.488;13.386;2022-09-21T07:20:25;4.20;;;3.73;;
12658;SDS011;6394;52.488;13.386;2022-09-21T07:22:52;5.33;;;3.83;;
12658;SDS011;6394;52.488;13.386;2022-09-21T07:25:19;6.07;;;4.37;;
12658;SDS011;6394;52.488;13.386;2022-09-21T07:27:47;4.30;;;3.90;;
12658;SDS011;6394;52.488;13.386;2022-09-21T07:30:14;6.40;;;4.43;;
12658;SDS011;6394;52.488;13.386;2022-09-21T07:32:43;8.50;;;4.30;;
12658;SDS011;6394;52.488;13.386;2022-09-21T07:35:10;8.23;;;4.77;;
12658;SDS011;6394;52.488;13.386;2022-09-21T07:37:37;4.63;;;3.60;;
12658;SDS011;6394;52.488;13.386;2022-09-21T07:40:05;6.40;;;4.33;;
12658;SDS011;6394;52.488;13.386;2022-09-21T07:42:44;8.63;;;3.87;;
12658;SDS011;6394;52.488;13.386;2022-09-21T07:45:13;9.63;;;4.00;;
12658;SDS011;6394;52.488;13.386;2022-09-21T07:47:40;6.40;;;3.80;;
12658;SDS011;6394;52.488;13.386;2022-09-21T07:50:09;5.03;;;3.30;;
12658;SDS011;6394;52.488;13.386;2022-09-21T07:52:36;5.23;;;3.47;;
12658;SDS011;6394;52.488;13.386;2022-09-21T07:55:04;7.17;;;3.43;;
12658;SDS011;6394;52.488;13.386;2022-09-21T07:57:32;6.40;;;3.60;;
12658;SDS011;6394;52.488;13.386;2022-09-21T08:00:18;7.20;;;3.77;;
12658;SDS011;6394;52.488;13.386;2022-09-21T08:02:45;6.63;;;3.57;;
12658;SDS011;6394;52.488;13.386;2022-09-21T08:05:14;9.77;;;4.07;;
12658;SDS011;6394;52.488;13.386;2022-09-21T08:07:41;5.37;;;3.67;;
12658;SDS011;6394;52.488;13.386;2022-09-21T08:10:08;4.53;;;3.40;;
12658;SDS011;6394;52.488;13.386;2022-09-21T08:12:36;4.43;;;3.77;;
12658;SDS011;6394;52.488;13.386;2022-09-21T08:15:03;5.20;;;2.93;;
12658;SDS011;6394;52.488;13.386;2022-09-21T08:17:32;5.57;;;3.17;;
12658;SDS011;6394;52.488;13.386;2022-09-21T08:19:59;4.27;;;3.03;;
12658;SDS011;6394;52.488;13.386;2022-09-21T08:22:28;5.20;;;3.50;;
12658;SDS011;6394;52.488;13.386;2022-09-21T08:24:56;9.10;;;3.30;;
12658;SDS011;6394;52.488;13.386;2022-09-21T08:27:24;5.80;;;3.50;;
12658;SDS011;6394;52.488;13.386;2022-09-21T08:29:52;5.80;;;3.40;;
12658;SDS011;6394;52.488;13.386;2022-09-21T08:32:19;4.43;;;3.57;;
12658;SDS011;6394;52.488;13.386;2022-09-21T08:34:47;7.83;;;4.43;;
12658;SDS011;6394;52.488;13.386;2022-09-21T08:37:14;5.13;;;2.80;;
12658;SDS011;6394;52.488;13.386;2022-09-21T08:39:44;3.40;;;2.57;;
12658;SDS011;6394;52.488;13.386;2022-09-21T08:42:22;4.90;;;3.30;;
12658;SDS011;6394;52.488;13.386;2022-09-21T08:44:52;6.10;;;2.97;;
12658;SDS011;6394;52.488;13.386;2022-09-21T08:47:27;6.63;;;3.00;;
12658;SDS011;6394;52.488;13.386;2022-09-21T08:49:55;6.17;;;3.20;;
12658;SDS011;6394;52.488;13.386;2022-09-21T08:52:25;7.00;;;3.67;;
12658;SDS011;6394;52.488;13.386;2022-09-21T08:54:54;4.60;;;3.30;;
12658;SDS011;6394;52.488;13.386;2022-09-21T08:57:24;6.93;;;3.40;;
12658;SDS011;6394;52.488;13.386;2022-09-21T08:59:52;6.77;;;3.70;;
12658;SDS011;6394;52.488;13.386;2022-09-21T09:02:33;5.97;;;3.10;;
12658;SDS011;6394;52.488;13.386;2022-09-21T09:05:06;4.97;;;3.30;;
12658;SDS011;6394;52.488;13.386;2022-09-21T09:07:49;7.53;;;5.07;;
12658;SDS011;6394;52.488;13.386;2022-09-21T09:10:24;8.33;;;2.90;;
12658;SDS011;6394;52.488;13.386;2022-09-21T09:12:56;5.57;;;2.83;;
12658;SDS011;6394;52.488;13.386;2022-09-21T09:15:32;6.53;;;3.93;;
12658;SDS011;6394;52.488;13.386;2022-09-21T09:18:06;3.87;;;2.97;;
12658;SDS011;6394;52.488;13.386;2022-09-21T09:20:35;4.53;;;2.90;;
12658;SDS011;6394;52.488;13.386;2022-09-21T09:23:05;3.53;;;3.10;;
12658;SDS011;6394;52.488;13.386;2022-09-21T09:25:37;4.47;;;2.93;;
12658;SDS011;6394;52.488;13.386;2022-09-21T09:28:12;4.87;;;2.83;;
12658;SDS011;6394;52.488;13.386;2022-09-21T09:30:42;5.37;;;3.30;;
12658;SDS011;6394;52.488;13.386;2022-09-21T09:33:11;6.37;;;2.57;;
12658;SDS011;6394;52.488;13.386;2022-09-21T09:35:43;2.60;;;2.40;;
12658;SDS011;6394;52.488;13.386;2022-09-21T09:38:13;6.73;;;2.50;;
12658;SDS011;6394;52.488;13.386;2022-09-21T09:40:54;7.30;;;3.27;;
12658;SDS011;6394;52.488;13.386;2022-09-21T09:43:28;4.70;;;2.53;;
12658;SDS011;6394;52.488;13.386;2022-09-21T09:46:02;4.17;;;2.97;;
12658;SDS011;6394;52.488;13.386;2022-09-21T09:48:44;4.67;;;2.90;;
12658;SDS011;6394;52.488;13.386;2022-09-21T09:51:13;8.67;;;3.40;;
12658;SDS011;6394;52.488;13.386;2022-09-21T09:53:40;5.83;;;3.30;;
12658;SDS011;6394;52.488;13.386;2022-09-21T09:56:09;7.47;;;2.97;;
12658;SDS011;6394;52.488;13.386;2022-09-21T09:58:40;5.93;;;3.13;;
12658;SDS011;6394;52.488;13.386;2022-09-21T10:01:13;8.03;;;3.40;;
12658;SDS011;6394;52.488;13.386;2022-09-21T10:04:03;5.00;;;3.10;;
12658;SDS011;6394;52.488;13.386;2022-09-21T10:06:31;5.30;;;3.07;;
12658;SDS011;6394;52.488;13.386;2022-09-21T10:08:58;4.53;;;2.50;;
12658;SDS011;6394;52.488;13.386;2022-09-21T10:11:34;3.00;;;1.97;;
12658;SDS011;6394;52.488;13.386;2022-09-21T10:14:06;3.67;;;2.30;;
12658;SDS011;6394;52.488;13.386;2022-09-21T10:16:38;3.63;;;1.93;;
12658;SDS011;6394;52.488;13.386;2022-09-21T10:19:10;2.80;;;1.93;;
12658;SDS011;6394;52.488;13.386;2022-09-21T10:21:40;2.60;;;1.57;;
12658;SDS011;6394;52.488;13.386;2022-09-21T10:24:13;3.27;;;1.20;;
12658;SDS011;6394;52.488;13.386;2022-09-21T10:26:44;2.80;;;1.20;;
12658;SDS011;6394;52.488;13.386;2022-09-21T10:29:18;2.00;;;0.90;;
12658;SDS011;6394;52.488;13.386;2022-09-21T10:31:54;4.73;;;0.70;;
12658;SDS011;6394;52.488;13.386;2022-09-21T10:34:22;0.83;;;0.70;;
12658;SDS011;6394;52.488;13.386;2022-09-21T10:36:51;2.97;;;1.00;;
12658;SDS011;6394;52.488;13.386;2022-09-21T10:39:24;2.23;;;0.83;;
12658;SDS011;6394;52.488;13.386;2022-09-21T10:41:55;2.63;;;0.90;;
12658;SDS011;6394;52.488;13.386;2022-09-21T10:44:25;1.67;;;0.60;;
12658;SDS011;6394;52.488;13.386;2022-09-21T10:46:52;1.23;;;0.63;;
12658;SDS011;6394;52.488;13.386;2022-09-21T10:49:22;1.30;;;0.60;;
12658;SDS011;6394;52.488;13.386;2022-09-21T10:51:50;1.40;;;0.50;;
12658;SDS011;6394;52.488;13.386;2022-09-21T10:54:19;1.97;;;0.60;;
12658;SDS011;6394;52.488;13.386;2022-09-21T10:56:51;0.97;;;0.43;;
12658;SDS011;6394;52.488;13.386;2022-09-21T10:59:22;1.07;;;0.50;;
12658;SDS011;6394;52.488;13.386;2022-09-21T11:01:50;1.90;;;0.80;;
12658;SDS011;6394;52.488;13.386;2022-09-21T11:04:20;1.27;;;0.50;;
12658;SDS011;6394;52.488;13.386;2022-09-21T11:06:50;2.43;;;0.60;;
12658;SDS011;6394;52.488;13.386;2022-09-21T11:09:19;1.10;;;0.40;;
12658;SDS011;6394;52.488;13.386;2022-09-21T11:11:49;2.00;;;0.60;;
12658;SDS011;6394;52.488;13.386;2022-09-21T11:14:26;1.17;;;0.40;;
12658;SDS011;6394;52.488;13.386;2022-09-21T11:16:57;0.80;;;0.30;;
12658;SDS011;6394;52.488;13.386;2022-09-21T11:19:27;1.20;;;0.20;;
12658;SDS011;6394;52.488;13.386;2022-09-21T11:21:59;2.17;;;0.40;;
12658;SDS011;6394;52.488;13.386;2022-09-21T11:24:29;1.33;;;0.50;;
12658;SDS011;6394;52.488;13.386;2022-09-21T11:27:00;0.70;;;0.50;;
12658;SDS011;6394;52.488;13.386;2022-09-21T11:29:32;1.33;;;0.40;;
12658;SDS011;6394;52.488;13.386;2022-09-21T11:32:08;1.57;;;0.60;;
12658;SDS011;6394;52.488;13.386;2022-09-21T11:34:42;1.47;;;0.57;;
12658;SDS011;6394;52.488;13.386;2022-09-21T11:37:15;1.87;;;0.60;;
12658;SDS011;6394;52.488;13.386;2022-09-21T11:39:49;1.27;;;0.43;;
12658;SDS011;6394;52.488;13.386;2022-09-21T11:42:27;2.90;;;0.60;;
12658;SDS011;6394;52.488;13.386;2022-09-21T11:44:57;2.03;;;0.40;;
12658;SDS011;6394;52.488;13.386;2022-09-21T11:47:32;1.20;;;0.57;;
12658;SDS011;6394;52.488;13.386;2022-09-21T11:50:05;0.30;;;0.30;;
12658;SDS011;6394;52.488;13.386;2022-09-21T11:52:38;2.27;;;0.60;;
12658;SDS011;6394;52.488;13.386;2022-09-21T11:55:16;0.40;;;0.40;;
12658;SDS011;6394;52.488;13.386;2022-09-21T11:57:49;1.07;;;0.40;;
12658;SDS011;6394;52.488;13.386;2022-09-21T12:00:20;1.60;;;0.43;;
12658;SDS011;6394;52.488;13.386;2022-09-21T12:05:35;1.80;;;0.73;;
12658;SDS011;6394;52.488;13.386;2022-09-21T12:08:10;1.57;;;0.50;;
12658;SDS011;6394;52.488;13.386;2022-09-21T12:10:44;5.63;;;0.60;;
12658;SDS011;6394;52.488;13.386;2022-09-21T12:13:18;2.73;;;0.60;;
12658;SDS011;6394;52.488;13.386;2022-09-21T12:15:50;0.93;;;0.50;;
12658;SDS011;6394;52.488;13.386;2022-09-21T12:18:22;1.30;;;0.47;;
12658;SDS011;6394;52.488;13.386;2022-09-21T12:20:53;0.63;;;0.50;;
12658;SDS011;6394;52.488;13.386;2022-09-21T12:23:26;2.73;;;0.43;;
12658;SDS011;6394;52.488;13.386;2022-09-21T12:25:56;1.47;;;0.80;;
12658;SDS011;6394;52.488;13.386;2022-09-21T12:28:25;0.77;;;0.50;;
12658;SDS011;6394;52.488;13.386;2022-09-21T12:30:55;2.53;;;0.40;;
12658;SDS011;6394;52.488;13.386;2022-09-21T12:33:26;0.40;;;0.40;;
12658;SDS011;6394;52.488;13.386;2022-09-21T12:35:58;1.10;;;0.40;;
12658;SDS011;6394;52.488;13.386;2022-09-21T12:38:30;0.93;;;0.50;;
12658;SDS011;6394;52.488;13.386;2022-09-21T12:41:01;3.27;;;0.53;;
12658;SDS011;6394;52.488;13.386;2022-09-21T12:43:31;2.83;;;0.80;;
12658;SDS011;6394;52.488;13.386;2022-09-21T12:46:02;1.97;;;0.70;;
12658;SDS011;6394;52.488;13.386;2022-09-21T12:48:31;1.80;;;0.50;;
12658;SDS011;6394;52.488;13.386;2022-09-21T12:51:01;1.17;;;0.50;;
12658;SDS011;6394;52.488;13.386;2022-09-21T12:53:31;1.13;;;0.50;;
12658;SDS011;6394;52.488;13.386;2022-09-21T12:56:00;2.90;;;0.50;;
12658;SDS011;6394;52.488;13.386;2022-09-21T12:58:33;0.53;;;0.47;;
12658;SDS011;6394;52.488;13.386;2022-09-21T13:01:11;1.10;;;0.53;;
12658;SDS011;6394;52.488;13.386;2022-09-21T13:03:41;1.37;;;0.60;;
12658;SDS011;6394;52.488;13.386;2022-09-21T13:06:21;2.37;;;0.50;;
12658;SDS011;6394;52.488;13.386;2022-09-21T13:08:55;0.57;;;0.40;;
12658;SDS011;6394;52.488;13.386;2022-09-21T13:11:23;1.83;;;0.73;;
12658;SDS011;6394;52.488;13.386;2022-09-21T13:13:51;1.60;;;0.50;;
12658;SDS011;6394;52.488;13.386;2022-09-21T13:16:24;1.73;;;0.53;;
12658;SDS011;6394;52.488;13.386;2022-09-21T13:18:54;1.13;;;0.70;;
12658;SDS011;6394;52.488;13.386;2022-09-21T13:21:23;0.97;;;0.80;;
12658;SDS011;6394;52.488;13.386;2022-09-21T13:23:54;2.20;;;0.63;;
12658;SDS011;6394;52.488;13.386;2022-09-21T13:26:33;0.90;;;0.40;;
12658;SDS011;6394;52.488;13.386;2022-09-21T13:32:18;1.17;;;0.50;;
12658;SDS011;6394;52.488;13.386;2022-09-21T13:34:46;2.10;;;0.30;;
12658;SDS011;6394;52.488;13.386;2022-09-21T13:37:26;1.97;;;0.60;;
12658;SDS011;6394;52.488;13.386;2022-09-21T13:40:27;1.10;;;0.60;;
12658;SDS011;6394;52.488;13.386;2022-09-21T13:42:43;3.00;;;0.73;;
12658;SDS011;6394;52.488;13.386;2022-09-21T13:47:55;1.00;;;0.57;;
12658;SDS011;6394;52.488;13.386;2022-09-21T13:50:25;1.03;;;0.50;;
12658;SDS011;6394;52.488;13.386;2022-09-21T13:52:54;0.57;;;0.40;;
12658;SDS011;6394;52.488;13.386;2022-09-21T13:55:25;1.27;;;0.60;;
12658;SDS011;6394;52.488;13.386;2022-09-21T13:57:54;1.80;;;0.40;;
12658;SDS011;6394;52.488;13.386;2022-09-21T14:00:35;1.33;;;0.60;;
12658;SDS011;6394;52.488;13.386;2022-09-21T14:03:16;0.67;;;0.67;;
12658;SDS011;6394;52.488;13.386;2022-09-21T14:05:46;1.30;;;0.50;;
12658;SDS011;6394;52.488;13.386;2022-09-21T14:08:18;4.50;;;0.70;;
12658;SDS011;6394;52.488;13.386;2022-09-21T14:10:48;1.77;;;0.70;;
12658;SDS011;6394;52.488;13.386;2022-09-21T14:13:27;2.87;;;0.60;;
12658;SDS011;6394;52.488;13.386;2022-09-21T14:18:39;1.30;;;0.40;;
12658;SDS011;6394;52.488;13.386;2022-09-21T14:21:10;1.73;;;0.53;;
12658;SDS011;6394;52.488;13.386;2022-09-21T14:24:06;0.80;;;0.57;;
12658;SDS011;6394;52.488;13.386;2022-09-21T14:26:33;1.00;;;0.60;;
12658;SDS011;6394;52.488;13.386;2022-09-21T14:29:04;0.80;;;0.57;;
12658;SDS011;6394;52.488;13.386;2022-09-21T14:31:33;1.97;;;0.60;;
12658;SDS011;6394;52.488;13.386;2022-09-21T14:34:04;1.53;;;0.50;;
12658;SDS011;6394;52.488;13.386;2022-09-21T14:36:32;0.47;;;0.40;;
12658;SDS011;6394;52.488;13.386;2022-09-21T14:39:05;0.60;;;0.60;;
12658;SDS011;6394;52.488;13.386;2022-09-21T14:41:40;1.50;;;0.50;;
12658;SDS011;6394;52.488;13.386;2022-09-21T14:44:12;0.83;;;0.50;;
12658;SDS011;6394;52.488;13.386;2022-09-21T14:46:51;1.67;;;0.53;;
12658;SDS011;6394;52.488;13.386;2022-09-21T14:49:41;0.50;;;0.40;;
12658;SDS011;6394;52.488;13.386;2022-09-21T14:52:16;0.83;;;0.50;;
12658;SDS011;6394;52.488;13.386;2022-09-21T15:00:05;1.47;;;0.70;;
12658;SDS011;6394;52.488;13.386;2022-09-21T15:02:39;1.57;;;0.50;;
12658;SDS011;6394;52.488;13.386;2022-09-21T15:05:18;0.50;;;0.33;;
12658;SDS011;6394;52.488;13.386;2022-09-21T15:07:47;2.27;;;0.60;;
12658;SDS011;6394;52.488;13.386;2022-09-21T15:10:33;1.93;;;0.50;;
12658;SDS011;6394;52.488;13.386;2022-09-21T15:13:28;1.17;;;0.50;;
12658;SDS011;6394;52.488;13.386;2022-09-21T15:16:05;0.70;;;0.40;;
12658;SDS011;6394;52.488;13.386;2022-09-21T15:18:38;1.23;;;0.40;;
12658;SDS011;6394;52.488;13.386;2022-09-21T15:21:17;1.37;;;0.50;;
12658;SDS011;6394;52.488;13.386;2022-09-21T15:23:46;1.77;;;0.53;;
12658;SDS011;6394;52.488;13.386;2022-09-21T15:26:14;0.40;;;0.40;;
12658;SDS011;6394;52.488;13.386;2022-09-21T15:28:45;1.40;;;0.43;;
12658;SDS011;6394;52.488;13.386;2022-09-21T15:31:14;1.40;;;0.60;;
12658;SDS011;6394;52.488;13.386;2022-09-21T15:33:42;2.63;;;0.50;;